sensor_id;sensor_type;location;lat;lon;timestamp;P1;durP1;ratioP1;P2;durP2;ratioP2
3817;SDS011;1924;48.078;11.516;2024-02-04T00:01:54;29.00;;;0.80;;
3817;SDS011;1924;48.078;11.516;2024-02-04T00:04:20;29.00;;;0.80;;
3817;SDS011;1924;48.078;11.516;2024-02-04T00:06:49;29.00;;;0.80;;
3817;SDS011;1924;48.078;11.516;2024-02-04T00:09:16;28.87;;;0.80;;
3817;SDS011;1924;48.078;11.516;2024-02-04T00:11:44;29.00;;;0.80;;
3817;SDS011;1924;48.078;11.516;2024-02-04T00:14:11;28.70;;;0.80;;
3817;SDS011;1924;48.078;11.516;2024-02-04T00:16:38;29.00;;;0.80;;
3817;SDS011;1924;48.078;11.516;2024-02-04T00:19:05;28.80;;;0.80;;
3817;SDS011;1924;48.078;11.516;2024-02-04T05:02:46;28.27;;;0.80;;
3817;SDS011;1924;48.078;11.516;2024-02-04T05:05:14;28.30;;;0.80;;
3817;SDS011;1924;48.078;11.516;2024-02-04T05:07:40;28.33;;;0.80;;
3817;SDS011;1924;48.078;11.516;2024-02-04T05:10:08;28.30;;;0.80;;
3817;SDS011;1924;48.078;11.516;2024-02-04T05:12:35;28.30;;;0.80;;
3817;SDS011;1924;48.078;11.516;2024-02-04T05:15:02;28.40;;;0.80;;
3817;SDS011;1924;48.078;11.516;2024-02-04T05:17:30;28.10;;;0.80;;
3817;SDS011;1924;48.078;11.516;2024-02-04T05:19:58;28.30;;;0.80;;
3817;SDS011;1924;48.078;11.516;2024-02-04T05:22:25;28.10;;;0.80;;
3817;SDS011;1924;48.078;11.516;2024-02-04T05:24:52;28.30;;;0.80;;
3817;SDS011;1924;48.078;11.516;2024-02-04T05:27:19;28.00;;;0.80;;
3817;SDS011;1924;48.078;11.516;2024-02-04T05:29:46;28.07;;;0.80;;
3817;SDS011;1924;48.078;11.516;2024-02-04T05:32:12;28.30;;;0.80;;
3817;SDS011;1924;48.078;11.516;2024-02-04T05:34:39;28.30;;;0.80;;
3817;SDS011;1924;48.078;11.516;2024-02-04T05:37:07;28.30;;;0.80;;
3817;SDS011;1924;48.078;11.516;2024-02-04T05:39:34;28.40;;;0.80;;
3817;SDS011;1924;48.078;11.516;2024-02-04T05:42:01;28.40;;;0.80;;
3817;SDS011;1924;48.078;11.516;2024-02-04T05:44:27;28.40;;;0.80;;
3817;SDS011;1924;48.078;11.516;2024-02-04T05:46:54;28.20;;;0.80;;
3817;SDS011;1924;48.078;11.516;2024-02-04T05:49:21;28.10;;;0.80;;
3817;SDS011;1924;48.078;11.516;2024-02-04T05:51:47;28.10;;;0.80;;
3817;SDS011;1924;48.078;11.516;2024-02-04T05:54:15;28.20;;;0.80;;
3817;SDS011;1924;48.078;11.516;2024-02-04T05:56:42;28.30;;;0.80;;
3817;SDS011;1924;48.078;11.516;2024-02-04T05:59:09;28.10;;;0.77;;
3817;SDS011;1924;48.078;11.516;2024-02-04T06:01:35;28.30;;;0.80;;
3817;SDS011;1924;48.078;11.516;2024-02-04T06:04:02;28.20;;;0.80;;
3817;SDS011;1924;48.078;11.516;2024-02-04T06:06:29;28.30;;;0.80;;
3817;SDS011;1924;48.078;11.516;2024-02-04T06:08:56;28.30;;;0.80;;
3817;SDS011;1924;48.078;11.516;2024-02-04T06:11:24;28.40;;;0.80;;
3817;SDS011;1924;48.078;11.516;2024-02-04T06:13:51;28.20;;;0.80;;
3817;SDS011;1924;48.078;11.516;2024-02-04T06:16:18;28.30;;;0.80;;
3817;SDS011;1924;48.078;11.516;2024-02-04T06:18:45;28.47;;;0.80;;
3817;SDS011;1924;48.078;11.516;2024-02-04T06:21:12;28.40;;;0.80;;
3817;SDS011;1924;48.078;11.516;2024-02-04T06:23:39;28.37;;;0.80;;
3817;SDS011;1924;48.078;11.516;2024-02-04T06:26:08;28.20;;;0.80;;
3817;SDS011;1924;48.078;11.516;2024-02-04T06:28:36;28.40;;;0.80;;
3817;SDS011;1924;48.078;11.516;2024-02-04T06:31:03;28.50;;;0.80;;
3817;SDS011;1924;48.078;11.516;2024-02-04T06:33:29;28.50;;;0.80;;
3817;SDS011;1924;48.078;11.516;2024-02-04T06:35:56;28.40;;;0.80;;
3817;SDS011;1924;48.078;11.516;2024-02-04T06:38:23;28.40;;;0.80;;
3817;SDS011;1924;48.078;11.516;2024-02-04T06:40:50;28.20;;;0.80;;
3817;SDS011;1924;48.078;11.516;2024-02-04T06:43:16;28.40;;;0.80;;
3817;SDS011;1924;48.078;11.516;2024-02-04T06:45:45;28.40;;;0.80;;
3817;SDS011;1924;48.078;11.516;2024-02-04T06:48:12;28.40;;;0.80;;
3817;SDS011;1924;48.078;11.516;2024-02-04T06:50:39;28.50;;;0.80;;
3817;SDS011;1924;48.078;11.516;2024-02-04T06:53:08;28.50;;;0.80;;
3817;SDS011;1924;48.078;11.516;2024-02-04T06:55:35;28.60;;;0.80;;
3817;SDS011;1924;48.078;11.516;2024-02-04T06:58:02;28.50;;;0.80;;
3817;SDS011;1924;48.078;11.516;2024-02-04T07:00:29;28.30;;;0.80;;
3817;SDS011;1924;48.078;11.516;2024-02-04T07:02:57;28.47;;;0.80;;
3817;SDS011;1924;48.078;11.516;2024-02-04T07:05:23;28.30;;;0.80;;
3817;SDS011;1924;48.078;11.516;2024-02-04T07:07:50;28.50;;;0.80;;
3817;SDS011;1924;48.078;11.516;2024-02-04T07:10:17;28.50;;;0.80;;
3817;SDS011;1924;48.078;11.516;2024-02-04T07:12:44;28.50;;;0.80;;
3817;SDS011;1924;48.078;11.516;2024-02-04T07:15:10;28.40;;;0.80;;
3817;SDS011;1924;48.078;11.516;2024-02-04T07:17:37;28.40;;;0.80;;
3817;SDS011;1924;48.078;11.516;2024-02-04T07:20:06;28.50;;;0.80;;
3817;SDS011;1924;48.078;11.516;2024-02-04T07:22:33;28.30;;;0.80;;
3817;SDS011;1924;48.078;11.516;2024-02-04T07:25:00;28.40;;;0.80;;
3817;SDS011;1924;48.078;11.516;2024-02-04T07:27:28;28.30;;;0.80;;
3817;SDS011;1924;48.078;11.516;2024-02-04T07:29:56;28.40;;;0.80;;
3817;SDS011;1924;48.078;11.516;2024-02-04T07:32:23;28.40;;;0.80;;
3817;SDS011;1924;48.078;11.516;2024-02-04T07:34:49;28.50;;;0.80;;
3817;SDS011;1924;48.078;11.516;2024-02-04T07:37:18;28.30;;;0.80;;
3817;SDS011;1924;48.078;11.516;2024-02-04T07:39:44;28.50;;;0.80;;
3817;SDS011;1924;48.078;11.516;2024-02-04T07:42:11;28.40;;;0.80;;
3817;SDS011;1924;48.078;11.516;2024-02-04T07:44:38;28.40;;;0.80;;
3817;SDS011;1924;48.078;11.516;2024-02-04T07:47:05;28.47;;;0.80;;
3817;SDS011;1924;48.078;11.516;2024-02-04T07:49:31;28.40;;;0.80;;
3817;SDS011;1924;48.078;11.516;2024-02-04T07:51:58;28.47;;;0.80;;
3817;SDS011;1924;48.078;11.516;2024-02-04T07:54:26;28.40;;;0.80;;
3817;SDS011;1924;48.078;11.516;2024-02-04T07:56:53;28.50;;;0.80;;
3817;SDS011;1924;48.078;11.516;2024-02-04T07:59:20;28.40;;;0.80;;
3817;SDS011;1924;48.078;11.516;2024-02-04T08:01:47;28.40;;;0.80;;
3817;SDS011;1924;48.078;11.516;2024-02-04T08:04:14;28.50;;;0.80;;
3817;SDS011;1924;48.078;11.516;2024-02-04T08:06:41;28.20;;;0.80;;
3817;SDS011;1924;48.078;11.516;2024-02-04T08:09:07;28.50;;;0.80;;
3817;SDS011;1924;48.078;11.516;2024-02-04T08:11:35;28.37;;;0.80;;
3817;SDS011;1924;48.078;11.516;2024-02-04T08:14:02;28.50;;;0.80;;
3817;SDS011;1924;48.078;11.516;2024-02-04T08:16:29;28.40;;;0.80;;
3817;SDS011;1924;48.078;11.516;2024-02-04T08:18:56;28.47;;;0.80;;
3817;SDS011;1924;48.078;11.516;2024-02-04T08:21:22;28.30;;;0.80;;
3817;SDS011;1924;48.078;11.516;2024-02-04T08:23:49;28.50;;;0.80;;
3817;SDS011;1924;48.078;11.516;2024-02-04T08:26:16;28.50;;;0.80;;
3817;SDS011;1924;48.078;11.516;2024-02-04T08:28:44;28.60;;;0.80;;
3817;SDS011;1924;48.078;11.516;2024-02-04T08:31:10;28.30;;;0.80;;
3817;SDS011;1924;48.078;11.516;2024-02-04T08:33:37;28.70;;;0.80;;
3817;SDS011;1924;48.078;11.516;2024-02-04T08:36:04;28.60;;;0.80;;
3817;SDS011;1924;48.078;11.516;2024-02-04T08:38:32;28.70;;;0.80;;
3817;SDS011;1924;48.078;11.516;2024-02-04T08:40:58;28.57;;;0.80;;
3817;SDS011;1924;48.078;11.516;2024-02-04T08:43:25;28.70;;;0.80;;
3817;SDS011;1924;48.078;11.516;2024-02-04T08:45:53;28.70;;;0.80;;
3817;SDS011;1924;48.078;11.516;2024-02-04T08:48:20;28.90;;;0.80;;
3817;SDS011;1924;48.078;11.516;2024-02-04T08:50:47;28.90;;;0.80;;
3817;SDS011;1924;48.078;11.516;2024-02-04T08:53:13;28.90;;;0.80;;
3817;SDS011;1924;48.078;11.516;2024-02-04T08:55:40;28.80;;;0.80;;
3817;SDS011;1924;48.078;11.516;2024-02-04T08:58:07;29.00;;;0.80;;
3817;SDS011;1924;48.078;11.516;2024-02-04T09:00:34;29.00;;;0.80;;
3817;SDS011;1924;48.078;11.516;2024-02-04T09:03:02;29.10;;;0.80;;
3817;SDS011;1924;48.078;11.516;2024-02-04T09:05:29;28.90;;;0.80;;
3817;SDS011;1924;48.078;11.516;2024-02-04T09:07:55;29.00;;;0.80;;
3817;SDS011;1924;48.078;11.516;2024-02-04T09:10:22;29.10;;;0.80;;
3817;SDS011;1924;48.078;11.516;2024-02-04T09:12:49;28.97;;;0.80;;
3817;SDS011;1924;48.078;11.516;2024-02-04T09:15:16;28.93;;;0.80;;
3817;SDS011;1924;48.078;11.516;2024-02-04T09:17:42;28.87;;;0.80;;
3817;SDS011;1924;48.078;11.516;2024-02-04T09:20:11;29.10;;;0.80;;
3817;SDS011;1924;48.078;11.516;2024-02-04T09:22:38;29.30;;;0.87;;
3817;SDS011;1924;48.078;11.516;2024-02-04T09:25:05;29.00;;;0.80;;
3817;SDS011;1924;48.078;11.516;2024-02-04T09:27:32;29.10;;;0.80;;
3817;SDS011;1924;48.078;11.516;2024-02-04T09:29:59;29.10;;;0.80;;
3817;SDS011;1924;48.078;11.516;2024-02-04T09:32:26;29.10;;;0.80;;
3817;SDS011;1924;48.078;11.516;2024-02-04T09:34:53;29.03;;;0.80;;
3817;SDS011;1924;48.078;11.516;2024-02-04T09:37:21;29.20;;;0.80;;
3817;SDS011;1924;48.078;11.516;2024-02-04T09:39:47;29.10;;;0.80;;
3817;SDS011;1924;48.078;11.516;2024-02-04T09:42:17;29.20;;;0.80;;
3817;SDS011;1924;48.078;11.516;2024-02-04T09:44:46;29.20;;;0.80;;
3817;SDS011;1924;48.078;11.516;2024-02-04T09:47:14;29.10;;;0.80;;
3817;SDS011;1924;48.078;11.516;2024-02-04T09:49:41;29.30;;;0.80;;
3817;SDS011;1924;48.078;11.516;2024-02-04T09:52:09;29.40;;;0.80;;
3817;SDS011;1924;48.078;11.516;2024-02-04T09:54:41;29.50;;;0.80;;
3817;SDS011;1924;48.078;11.516;2024-02-04T09:57:10;29.40;;;0.80;;
3817;SDS011;1924;48.078;11.516;2024-02-04T09:59:38;29.27;;;0.80;;
3817;SDS011;1924;48.078;11.516;2024-02-04T10:02:05;29.40;;;0.80;;
3817;SDS011;1924;48.078;11.516;2024-02-04T10:04:33;29.50;;;0.80;;
3817;SDS011;1924;48.078;11.516;2024-02-04T10:06:59;29.47;;;0.80;;
3817;SDS011;1924;48.078;11.516;2024-02-04T10:09:27;29.70;;;0.80;;
3817;SDS011;1924;48.078;11.516;2024-02-04T10:11:56;29.70;;;0.80;;
3817;SDS011;1924;48.078;11.516;2024-02-04T10:14:23;29.90;;;0.80;;
3817;SDS011;1924;48.078;11.516;2024-02-04T10:16:50;29.70;;;0.80;;
3817;SDS011;1924;48.078;11.516;2024-02-04T10:19:17;29.80;;;0.80;;
3817;SDS011;1924;48.078;11.516;2024-02-04T10:21:44;29.70;;;0.80;;
3817;SDS011;1924;48.078;11.516;2024-02-04T10:24:10;30.00;;;0.80;;
3817;SDS011;1924;48.078;11.516;2024-02-04T10:26:37;30.00;;;0.80;;
3817;SDS011;1924;48.078;11.516;2024-02-04T10:29:08;30.10;;;0.80;;
3817;SDS011;1924;48.078;11.516;2024-02-04T10:31:34;30.10;;;0.80;;
3817;SDS011;1924;48.078;11.516;2024-02-04T10:34:01;29.97;;;0.80;;
3817;SDS011;1924;48.078;11.516;2024-02-04T10:36:29;30.10;;;0.80;;
3817;SDS011;1924;48.078;11.516;2024-02-04T10:38:56;30.07;;;0.80;;
3817;SDS011;1924;48.078;11.516;2024-02-04T10:41:23;30.17;;;0.80;;
3817;SDS011;1924;48.078;11.516;2024-02-04T10:43:51;30.17;;;0.80;;
3817;SDS011;1924;48.078;11.516;2024-02-04T10:46:22;30.30;;;0.80;;
3817;SDS011;1924;48.078;11.516;2024-02-04T10:48:51;30.10;;;0.80;;
3817;SDS011;1924;48.078;11.516;2024-02-04T10:51:22;30.20;;;0.80;;
3817;SDS011;1924;48.078;11.516;2024-02-04T10:53:51;30.40;;;0.80;;
3817;SDS011;1924;48.078;11.516;2024-02-04T10:56:21;30.50;;;0.80;;
3817;SDS011;1924;48.078;11.516;2024-02-04T10:58:51;30.50;;;0.80;;
3817;SDS011;1924;48.078;11.516;2024-02-04T11:01:21;30.70;;;0.80;;
3817;SDS011;1924;48.078;11.516;2024-02-04T11:03:49;30.67;;;0.80;;
3817;SDS011;1924;48.078;11.516;2024-02-04T11:06:17;30.77;;;0.80;;
3817;SDS011;1924;48.078;11.516;2024-02-04T11:08:46;30.70;;;0.80;;
3817;SDS011;1924;48.078;11.516;2024-02-04T11:11:13;30.67;;;0.80;;
3817;SDS011;1924;48.078;11.516;2024-02-04T11:13:40;30.97;;;0.80;;
3817;SDS011;1924;48.078;11.516;2024-02-04T11:16:13;30.87;;;0.80;;
3817;SDS011;1924;48.078;11.516;2024-02-04T11:18:58;31.03;;;0.80;;
3817;SDS011;1924;48.078;11.516;2024-02-04T11:21:44;31.17;;;0.80;;
3817;SDS011;1924;48.078;11.516;2024-02-04T11:24:27;31.10;;;0.80;;
3817;SDS011;1924;48.078;11.516;2024-02-04T11:27:05;31.20;;;0.80;;
3817;SDS011;1924;48.078;11.516;2024-02-04T11:29:32;31.40;;;0.80;;
3817;SDS011;1924;48.078;11.516;2024-02-04T11:32:01;31.17;;;0.80;;
3817;SDS011;1924;48.078;11.516;2024-02-04T11:34:29;31.13;;;0.80;;
3817;SDS011;1924;48.078;11.516;2024-02-04T11:36:56;31.47;;;0.80;;
3817;SDS011;1924;48.078;11.516;2024-02-04T11:39:23;31.40;;;0.80;;
3817;SDS011;1924;48.078;11.516;2024-02-04T11:41:50;31.47;;;0.80;;
3817;SDS011;1924;48.078;11.516;2024-02-04T11:44:20;31.27;;;0.80;;
3817;SDS011;1924;48.078;11.516;2024-02-04T11:46:48;31.10;;;0.80;;
3817;SDS011;1924;48.078;11.516;2024-02-04T11:49:17;31.07;;;0.80;;
3817;SDS011;1924;48.078;11.516;2024-02-04T11:51:48;31.00;;;0.80;;
3817;SDS011;1924;48.078;11.516;2024-02-04T11:54:17;31.10;;;0.80;;
3817;SDS011;1924;48.078;11.516;2024-02-04T11:56:47;30.97;;;0.80;;
3817;SDS011;1924;48.078;11.516;2024-02-04T11:59:18;31.00;;;0.80;;
3817;SDS011;1924;48.078;11.516;2024-02-04T12:01:45;31.00;;;0.80;;
3817;SDS011;1924;48.078;11.516;2024-02-04T12:04:12;30.87;;;0.80;;
3817;SDS011;1924;48.078;11.516;2024-02-04T12:06:40;31.10;;;0.90;;
3817;SDS011;1924;48.078;11.516;2024-02-04T12:09:09;31.07;;;0.80;;
3817;SDS011;1924;48.078;11.516;2024-02-04T12:11:36;31.00;;;0.80;;
3817;SDS011;1924;48.078;11.516;2024-02-04T12:14:04;30.77;;;0.80;;
3817;SDS011;1924;48.078;11.516;2024-02-04T12:16:31;30.90;;;0.80;;
3817;SDS011;1924;48.078;11.516;2024-02-04T12:19:00;31.00;;;0.80;;
3817;SDS011;1924;48.078;11.516;2024-02-04T12:21:28;30.90;;;0.80;;
3817;SDS011;1924;48.078;11.516;2024-02-04T12:23:55;30.90;;;0.80;;
3817;SDS011;1924;48.078;11.516;2024-02-04T12:26:23;30.83;;;0.80;;
3817;SDS011;1924;48.078;11.516;2024-02-04T12:28:50;30.77;;;0.80;;
3817;SDS011;1924;48.078;11.516;2024-02-04T12:31:17;30.73;;;0.80;;
3817;SDS011;1924;48.078;11.516;2024-02-04T12:33:51;30.77;;;0.80;;
3817;SDS011;1924;48.078;11.516;2024-02-04T12:36:19;30.80;;;0.80;;
3817;SDS011;1924;48.078;11.516;2024-02-04T12:38:50;30.83;;;0.80;;
3817;SDS011;1924;48.078;11.516;2024-02-04T12:41:18;30.80;;;0.80;;
3817;SDS011;1924;48.078;11.516;2024-02-04T12:43:49;30.70;;;0.80;;
3817;SDS011;1924;48.078;11.516;2024-02-04T12:46:17;30.50;;;0.80;;
3817;SDS011;1924;48.078;11.516;2024-02-04T12:48:44;30.60;;;0.80;;
3817;SDS011;1924;48.078;11.516;2024-02-04T12:51:11;30.60;;;0.80;;
3817;SDS011;1924;48.078;11.516;2024-02-04T12:53:38;30.60;;;0.80;;
3817;SDS011;1924;48.078;11.516;2024-02-04T12:56:05;30.60;;;0.80;;
3817;SDS011;1924;48.078;11.516;2024-02-04T12:58:32;30.50;;;0.80;;
3817;SDS011;1924;48.078;11.516;2024-02-04T13:01:09;30.60;;;0.80;;
3817;SDS011;1924;48.078;11.516;2024-02-04T13:03:36;30.60;;;0.80;;
3817;SDS011;1924;48.078;11.516;2024-02-04T13:06:03;30.50;;;0.80;;
3817;SDS011;1924;48.078;11.516;2024-02-04T13:08:30;30.40;;;0.80;;
3817;SDS011;1924;48.078;11.516;2024-02-04T13:10:57;30.40;;;0.80;;
3817;SDS011;1924;48.078;11.516;2024-02-04T13:13:24;30.40;;;0.80;;
3817;SDS011;1924;48.078;11.516;2024-02-04T13:15:52;30.50;;;0.80;;
3817;SDS011;1924;48.078;11.516;2024-02-04T13:18:20;30.60;;;0.80;;
3817;SDS011;1924;48.078;11.516;2024-02-04T13:20:47;30.60;;;0.80;;
3817;SDS011;1924;48.078;11.516;2024-02-04T13:23:14;30.30;;;0.80;;
3817;SDS011;1924;48.078;11.516;2024-02-04T13:25:40;30.60;;;0.80;;
3817;SDS011;1924;48.078;11.516;2024-02-04T13:28:07;30.57;;;0.80;;
3817;SDS011;1924;48.078;11.516;2024-02-04T13:30:34;30.50;;;0.80;;
3817;SDS011;1924;48.078;11.516;2024-02-04T13:33:02;30.50;;;0.80;;
3817;SDS011;1924;48.078;11.516;2024-02-04T13:35:30;30.60;;;0.80;;
3817;SDS011;1924;48.078;11.516;2024-02-04T13:37:57;30.47;;;0.80;;
3817;SDS011;1924;48.078;11.516;2024-02-04T13:40:24;30.60;;;0.80;;
3817;SDS011;1924;48.078;11.516;2024-02-04T13:42:50;30.47;;;0.80;;
3817;SDS011;1924;48.078;11.516;2024-02-04T13:45:17;30.63;;;0.80;;
3817;SDS011;1924;48.078;11.516;2024-02-04T13:47:44;30.50;;;0.80;;
3817;SDS011;1924;48.078;11.516;2024-02-04T13:50:11;30.80;;;0.90;;
3817;SDS011;1924;48.078;11.516;2024-02-04T13:52:39;30.47;;;0.80;;
3817;SDS011;1924;48.078;11.516;2024-02-04T13:55:06;30.60;;;0.80;;
3817;SDS011;1924;48.078;11.516;2024-02-04T13:57:34;30.53;;;0.80;;
3817;SDS011;1924;48.078;11.516;2024-02-04T14:00:01;30.60;;;0.80;;
3817;SDS011;1924;48.078;11.516;2024-02-04T14:02:29;30.57;;;0.80;;
3817;SDS011;1924;48.078;11.516;2024-02-04T14:04:56;30.60;;;0.80;;
3817;SDS011;1924;48.078;11.516;2024-02-04T14:07:24;30.60;;;0.80;;
3817;SDS011;1924;48.078;11.516;2024-02-04T14:09:53;30.50;;;0.80;;
3817;SDS011;1924;48.078;11.516;2024-02-04T14:12:20;30.60;;;0.80;;
3817;SDS011;1924;48.078;11.516;2024-02-04T14:14:47;30.50;;;0.80;;
3817;SDS011;1924;48.078;11.516;2024-02-04T14:17:13;30.40;;;0.80;;
3817;SDS011;1924;48.078;11.516;2024-02-04T14:19:40;30.40;;;0.80;;
3817;SDS011;1924;48.078;11.516;2024-02-04T14:22:07;30.40;;;0.80;;
3817;SDS011;1924;48.078;11.516;2024-02-04T14:24:34;30.40;;;0.80;;
3817;SDS011;1924;48.078;11.516;2024-02-04T14:27:02;30.40;;;0.80;;
3817;SDS011;1924;48.078;11.516;2024-02-04T14:29:29;30.20;;;0.80;;
3817;SDS011;1924;48.078;11.516;2024-02-04T14:31:56;30.50;;;0.80;;
3817;SDS011;1924;48.078;11.516;2024-02-04T14:34:26;30.30;;;0.80;;
3817;SDS011;1924;48.078;11.516;2024-02-04T14:36:55;30.30;;;0.80;;
3817;SDS011;1924;48.078;11.516;2024-02-04T14:39:25;30.20;;;0.80;;
3817;SDS011;1924;48.078;11.516;2024-02-04T14:41:52;30.23;;;0.80;;
3817;SDS011;1924;48.078;11.516;2024-02-04T14:44:20;30.30;;;0.80;;
3817;SDS011;1924;48.078;11.516;2024-02-04T14:46:47;30.20;;;0.80;;
3817;SDS011;1924;48.078;11.516;2024-02-04T14:49:14;30.20;;;0.80;;
3817;SDS011;1924;48.078;11.516;2024-02-04T14:51:44;30.20;;;0.80;;
3817;SDS011;1924;48.078;11.516;2024-02-04T14:54:11;30.30;;;0.80;;
3817;SDS011;1924;48.078;11.516;2024-02-04T14:56:37;30.30;;;0.80;;
3817;SDS011;1924;48.078;11.516;2024-02-04T14:59:05;30.20;;;0.80;;
3817;SDS011;1924;48.078;11.516;2024-02-04T15:01:34;30.20;;;0.80;;
3817;SDS011;1924;48.078;11.516;2024-02-04T15:04:01;30.30;;;0.80;;
3817;SDS011;1924;48.078;11.516;2024-02-04T15:06:28;30.13;;;0.80;;
3817;SDS011;1924;48.078;11.516;2024-02-04T15:08:57;29.97;;;0.80;;
3817;SDS011;1924;48.078;11.516;2024-02-04T15:11:24;30.10;;;0.80;;
3817;SDS011;1924;48.078;11.516;2024-02-04T15:13:55;29.97;;;0.80;;
3817;SDS011;1924;48.078;11.516;2024-02-04T15:16:22;29.97;;;0.80;;
3817;SDS011;1924;48.078;11.516;2024-02-04T15:18:51;30.07;;;0.80;;
3817;SDS011;1924;48.078;11.516;2024-02-04T15:21:18;30.10;;;0.80;;
3817;SDS011;1924;48.078;11.516;2024-02-04T15:23:47;30.00;;;0.80;;
3817;SDS011;1924;48.078;11.516;2024-02-04T15:26:14;30.10;;;0.80;;
3817;SDS011;1924;48.078;11.516;2024-02-04T15:28:41;30.17;;;0.80;;
3817;SDS011;1924;48.078;11.516;2024-02-04T15:31:12;30.10;;;0.80;;
3817;SDS011;1924;48.078;11.516;2024-02-04T15:33:40;30.10;;;0.80;;
3817;SDS011;1924;48.078;11.516;2024-02-04T15:36:08;30.00;;;0.80;;
3817;SDS011;1924;48.078;11.516;2024-02-04T15:38:35;30.10;;;0.80;;
3817;SDS011;1924;48.078;11.516;2024-02-04T15:41:02;30.10;;;0.80;;
3817;SDS011;1924;48.078;11.516;2024-02-04T15:43:29;30.10;;;0.80;;
3817;SDS011;1924;48.078;11.516;2024-02-04T15:45:55;30.20;;;0.80;;
3817;SDS011;1924;48.078;11.516;2024-02-04T15:48:25;30.07;;;0.80;;
3817;SDS011;1924;48.078;11.516;2024-02-04T15:50:56;29.93;;;0.80;;
3817;SDS011;1924;48.078;11.516;2024-02-04T15:53:26;30.00;;;0.80;;
3817;SDS011;1924;48.078;11.516;2024-02-04T15:55:53;30.07;;;0.80;;
3817;SDS011;1924;48.078;11.516;2024-02-04T15:58:21;30.23;;;0.80;;
3817;SDS011;1924;48.078;11.516;2024-02-04T16:00:51;30.20;;;0.80;;
3817;SDS011;1924;48.078;11.516;2024-02-04T16:03:18;30.00;;;0.80;;
3817;SDS011;1924;48.078;11.516;2024-02-04T16:05:45;30.10;;;0.80;;
3817;SDS011;1924;48.078;11.516;2024-02-04T16:08:13;30.10;;;0.80;;
3817;SDS011;1924;48.078;11.516;2024-02-04T16:10:41;30.20;;;0.80;;
3817;SDS011;1924;48.078;11.516;2024-02-04T16:13:10;30.10;;;0.80;;
3817;SDS011;1924;48.078;11.516;2024-02-04T16:15:38;30.10;;;0.80;;
3817;SDS011;1924;48.078;11.516;2024-02-04T16:18:06;30.07;;;0.80;;
3817;SDS011;1924;48.078;11.516;2024-02-04T16:20:33;30.00;;;0.80;;
3817;SDS011;1924;48.078;11.516;2024-02-04T16:23:04;30.17;;;0.80;;
3817;SDS011;1924;48.078;11.516;2024-02-04T16:25:32;30.20;;;0.80;;
3817;SDS011;1924;48.078;11.516;2024-02-04T16:28:01;29.90;;;0.80;;
3817;SDS011;1924;48.078;11.516;2024-02-04T16:30:28;30.10;;;0.80;;
3817;SDS011;1924;48.078;11.516;2024-02-04T16:32:54;30.00;;;0.80;;
3817;SDS011;1924;48.078;11.516;2024-02-04T16:35:21;29.87;;;0.80;;
3817;SDS011;1924;48.078;11.516;2024-02-04T16:37:49;29.70;;;0.80;;
3817;SDS011;1924;48.078;11.516;2024-02-04T16:40:16;29.77;;;0.80;;
3817;SDS011;1924;48.078;11.516;2024-02-04T16:42:42;30.00;;;0.80;;
3817;SDS011;1924;48.078;11.516;2024-02-04T16:45:11;30.10;;;0.80;;
3817;SDS011;1924;48.078;11.516;2024-02-04T16:47:37;29.80;;;0.80;;
3817;SDS011;1924;48.078;11.516;2024-02-04T16:50:04;30.00;;;0.80;;
3817;SDS011;1924;48.078;11.516;2024-02-04T16:52:32;29.93;;;0.80;;
3817;SDS011;1924;48.078;11.516;2024-02-04T16:54:59;30.00;;;0.80;;
3817;SDS011;1924;48.078;11.516;2024-02-04T16:57:30;29.90;;;0.80;;
3817;SDS011;1924;48.078;11.516;2024-02-04T17:00:00;30.00;;;0.80;;
3817;SDS011;1924;48.078;11.516;2024-02-04T17:02:30;30.00;;;0.80;;
3817;SDS011;1924;48.078;11.516;2024-02-04T17:04:57;30.00;;;0.80;;
3817;SDS011;1924;48.078;11.516;2024-02-04T17:07:24;30.00;;;0.80;;
3817;SDS011;1924;48.078;11.516;2024-02-04T17:09:52;30.00;;;0.80;;
3817;SDS011;1924;48.078;11.516;2024-02-04T17:12:19;30.00;;;0.80;;
3817;SDS011;1924;48.078;11.516;2024-02-04T17:14:47;29.70;;;0.80;;
3817;SDS011;1924;48.078;11.516;2024-02-04T17:17:14;29.90;;;0.80;;
3817;SDS011;1924;48.078;11.516;2024-02-04T17:19:49;29.80;;;0.80;;
3817;SDS011;1924;48.078;11.516;2024-02-04T17:22:25;29.90;;;0.80;;
3817;SDS011;1924;48.078;11.516;2024-02-04T17:24:55;29.87;;;0.80;;
3817;SDS011;1924;48.078;11.516;2024-02-04T17:27:28;29.70;;;0.80;;
3817;SDS011;1924;48.078;11.516;2024-02-04T17:30:00;29.90;;;0.80;;
3817;SDS011;1924;48.078;11.516;2024-02-04T17:32:30;30.00;;;0.80;;
3817;SDS011;1924;48.078;11.516;2024-02-04T17:34:59;29.77;;;0.80;;
3817;SDS011;1924;48.078;11.516;2024-02-04T17:37:26;29.60;;;0.80;;
3817;SDS011;1924;48.078;11.516;2024-02-04T17:39:53;29.90;;;0.80;;
3817;SDS011;1924;48.078;11.516;2024-02-04T17:42:20;29.80;;;0.80;;
3817;SDS011;1924;48.078;11.516;2024-02-04T17:44:52;29.80;;;0.80;;
3817;SDS011;1924;48.078;11.516;2024-02-04T17:47:19;29.70;;;0.80;;
3817;SDS011;1924;48.078;11.516;2024-02-04T17:49:49;30.00;;;0.80;;
3817;SDS011;1924;48.078;11.516;2024-02-04T17:52:17;29.67;;;0.80;;
3817;SDS011;1924;48.078;11.516;2024-02-04T17:54:45;30.00;;;0.80;;
3817;SDS011;1924;48.078;11.516;2024-02-04T17:57:13;29.90;;;0.80;;
3817;SDS011;1924;48.078;11.516;2024-02-04T17:59:40;29.90;;;0.80;;
3817;SDS011;1924;48.078;11.516;2024-02-04T18:02:07;30.00;;;0.80;;
3817;SDS011;1924;48.078;11.516;2024-02-04T18:04:33;29.90;;;0.80;;
3817;SDS011;1924;48.078;11.516;2024-02-04T18:07:00;29.90;;;0.80;;
3817;SDS011;1924;48.078;11.516;2024-02-04T18:09:29;29.70;;;0.80;;
3817;SDS011;1924;48.078;11.516;2024-02-04T18:11:56;29.57;;;0.80;;
3817;SDS011;1924;48.078;11.516;2024-02-04T18:14:22;29.90;;;0.80;;
3817;SDS011;1924;48.078;11.516;2024-02-04T18:16:49;29.80;;;0.80;;
3817;SDS011;1924;48.078;11.516;2024-02-04T18:19:16;29.60;;;0.80;;
3817;SDS011;1924;48.078;11.516;2024-02-04T18:21:43;29.80;;;0.80;;
3817;SDS011;1924;48.078;11.516;2024-02-04T18:24:10;29.67;;;0.80;;
3817;SDS011;1924;48.078;11.516;2024-02-04T18:26:38;29.70;;;0.80;;
3817;SDS011;1924;48.078;11.516;2024-02-04T18:29:05;29.90;;;0.80;;
3817;SDS011;1924;48.078;11.516;2024-02-04T18:31:32;29.77;;;0.80;;
3817;SDS011;1924;48.078;11.516;2024-02-04T18:33:59;29.70;;;0.80;;
3817;SDS011;1924;48.078;11.516;2024-02-04T18:36:26;29.60;;;0.80;;
3817;SDS011;1924;48.078;11.516;2024-02-04T18:38:54;29.50;;;0.80;;
3817;SDS011;1924;48.078;11.516;2024-02-04T18:41:22;29.80;;;0.80;;
3817;SDS011;1924;48.078;11.516;2024-02-04T18:43:51;29.70;;;0.80;;
3817;SDS011;1924;48.078;11.516;2024-02-04T18:46:19;29.80;;;0.80;;
3817;SDS011;1924;48.078;11.516;2024-02-04T18:48:45;29.60;;;0.80;;
3817;SDS011;1924;48.078;11.516;2024-02-04T18:51:12;29.80;;;0.80;;
3817;SDS011;1924;48.078;11.516;2024-02-04T18:53:40;29.80;;;0.80;;
3817;SDS011;1924;48.078;11.516;2024-02-04T18:56:07;29.80;;;0.80;;
3817;SDS011;1924;48.078;11.516;2024-02-04T18:58:40;29.80;;;0.80;;
3817;SDS011;1924;48.078;11.516;2024-02-04T19:01:08;29.90;;;0.80;;
3817;SDS011;1924;48.078;11.516;2024-02-04T19:03:35;29.80;;;0.80;;
3817;SDS011;1924;48.078;11.516;2024-02-04T19:06:02;29.80;;;0.80;;
3817;SDS011;1924;48.078;11.516;2024-02-04T19:08:30;29.67;;;0.80;;
3817;SDS011;1924;48.078;11.516;2024-02-04T19:10:57;29.67;;;0.80;;
3817;SDS011;1924;48.078;11.516;2024-02-04T19:13:24;29.63;;;0.80;;
3817;SDS011;1924;48.078;11.516;2024-02-04T19:15:51;29.70;;;0.80;;
3817;SDS011;1924;48.078;11.516;2024-02-04T19:18:19;29.80;;;0.80;;
3817;SDS011;1924;48.078;11.516;2024-02-04T19:20:46;29.90;;;0.80;;
3817;SDS011;1924;48.078;11.516;2024-02-04T19:23:13;29.57;;;0.80;;
3817;SDS011;1924;48.078;11.516;2024-02-04T19:25:39;29.50;;;0.80;;
3817;SDS011;1924;48.078;11.516;2024-02-04T19:28:06;29.70;;;0.80;;
3817;SDS011;1924;48.078;11.516;2024-02-04T19:30:33;29.70;;;0.80;;
3817;SDS011;1924;48.078;11.516;2024-02-04T19:33:04;29.90;;;0.80;;